sensor_id;sensor_type;location;lat;lon;timestamp;P1;durP1;ratioP1;P2;durP2;ratioP2
76540;SDS011;65385;55.772;37.658;2023-03-14T00:00:42;5.45;;;4.22;;
76540;SDS011;65385;55.772;37.658;2023-03-14T00:01:45;6.40;;;3.65;;
76540;SDS011;65385;55.772;37.658;2023-03-14T00:02:50;7.22;;;4.20;;
76540;SDS011;65385;55.772;37.658;2023-03-14T00:03:52;5.65;;;3.58;;
76540;SDS011;65385;55.772;37.658;2023-03-14T00:04:56;6.60;;;3.42;;
76540;SDS011;65385;55.772;37.658;2023-03-14T00:05:56;7.47;;;4.32;;
76540;SDS011;65385;55.772;37.658;2023-03-14T00:07:02;4.07;;;3.67;;
76540;SDS011;65385;55.772;37.658;2023-03-14T00:08:04;4.97;;;4.05;;
76540;SDS011;65385;55.772;37.658;2023-03-14T00:09:04;6.40;;;3.70;;
76540;SDS011;65385;55.772;37.658;2023-03-14T00:10:06;6.55;;;3.60;;
76540;SDS011;65385;55.772;37.658;2023-03-14T00:11:16;5.13;;;3.38;;
76540;SDS011;65385;55.772;37.658;2023-03-14T00:12:19;4.15;;;3.65;;
76540;SDS011;65385;55.772;37.658;2023-03-14T00:13:19;6.35;;;3.65;;
76540;SDS011;65385;55.772;37.658;2023-03-14T00:14:20;7.57;;;3.58;;
76540;SDS011;65385;55.772;37.658;2023-03-14T00:15:20;4.63;;;4.18;;
76540;SDS011;65385;55.772;37.658;2023-03-14T00:16:21;6.97;;;3.55;;
76540;SDS011;65385;55.772;37.658;2023-03-14T00:17:21;7.18;;;4.38;;
76540;SDS011;65385;55.772;37.658;2023-03-14T00:18:23;6.60;;;4.05;;
76540;SDS011;65385;55.772;37.658;2023-03-14T00:19:24;9.65;;;4.18;;
76540;SDS011;65385;55.772;37.658;2023-03-14T00:20:24;7.75;;;4.03;;
76540;SDS011;65385;55.772;37.658;2023-03-14T00:21:25;8.30;;;3.92;;
76540;SDS011;65385;55.772;37.658;2023-03-14T00:22:26;8.98;;;4.22;;
76540;SDS011;65385;55.772;37.658;2023-03-14T00:23:27;6.28;;;4.43;;
76540;SDS011;65385;55.772;37.658;2023-03-14T00:24:29;7.05;;;3.58;;
76540;SDS011;65385;55.772;37.658;2023-03-14T00:25:29;7.97;;;3.63;;
76540;SDS011;65385;55.772;37.658;2023-03-14T00:26:30;4.97;;;3.60;;
76540;SDS011;65385;55.772;37.658;2023-03-14T00:27:31;5.85;;;3.38;;
76540;SDS011;65385;55.772;37.658;2023-03-14T00:28:32;6.65;;;3.42;;
76540;SDS011;65385;55.772;37.658;2023-03-14T00:29:32;6.00;;;3.15;;
76540;SDS011;65385;55.772;37.658;2023-03-14T00:30:33;5.10;;;3.63;;
76540;SDS011;65385;55.772;37.658;2023-03-14T00:31:34;7.32;;;3.88;;
76540;SDS011;65385;55.772;37.658;2023-03-14T00:32:36;5.38;;;3.30;;
76540;SDS011;65385;55.772;37.658;2023-03-14T00:33:36;5.50;;;3.78;;
76540;SDS011;65385;55.772;37.658;2023-03-14T00:34:37;6.13;;;3.55;;
76540;SDS011;65385;55.772;37.658;2023-03-14T00:35:38;5.75;;;2.97;;
76540;SDS011;65385;55.772;37.658;2023-03-14T00:36:39;6.38;;;3.25;;
76540;SDS011;65385;55.772;37.658;2023-03-14T00:37:39;8.10;;;3.47;;
76540;SDS011;65385;55.772;37.658;2023-03-14T00:38:40;5.68;;;3.10;;
76540;SDS011;65385;55.772;37.658;2023-03-14T00:39:42;4.35;;;2.90;;
76540;SDS011;65385;55.772;37.658;2023-03-14T00:40:42;5.82;;;3.08;;
76540;SDS011;65385;55.772;37.658;2023-03-14T00:41:44;4.63;;;2.92;;
76540;SDS011;65385;55.772;37.658;2023-03-14T00:42:44;5.97;;;3.05;;
76540;SDS011;65385;55.772;37.658;2023-03-14T00:43:45;3.60;;;3.38;;
76540;SDS011;65385;55.772;37.658;2023-03-14T00:44:45;5.72;;;4.30;;
76540;SDS011;65385;55.772;37.658;2023-03-14T00:45:46;3.20;;;2.30;;
76540;SDS011;65385;55.772;37.658;2023-03-14T00:46:47;3.92;;;3.10;;
76540;SDS011;65385;55.772;37.658;2023-03-14T00:47:48;2.75;;;2.42;;
76540;SDS011;65385;55.772;37.658;2023-03-14T00:48:48;4.22;;;2.65;;
76540;SDS011;65385;55.772;37.658;2023-03-14T00:49:50;3.28;;;3.00;;
76540;SDS011;65385;55.772;37.658;2023-03-14T00:50:53;6.65;;;2.75;;
76540;SDS011;65385;55.772;37.658;2023-03-14T00:51:53;3.25;;;2.72;;
76540;SDS011;65385;55.772;37.658;2023-03-14T00:52:54;5.07;;;2.50;;
76540;SDS011;65385;55.772;37.658;2023-03-14T00:53:54;8.43;;;3.22;;
76540;SDS011;65385;55.772;37.658;2023-03-14T00:54:55;3.88;;;3.40;;
76540;SDS011;65385;55.772;37.658;2023-03-14T00:55:55;4.40;;;3.47;;
76540;SDS011;65385;55.772;37.658;2023-03-14T00:56:56;3.15;;;2.80;;
76540;SDS011;65385;55.772;37.658;2023-03-14T00:57:56;4.38;;;2.42;;
76540;SDS011;65385;55.772;37.658;2023-03-14T00:58:57;5.85;;;2.95;;
76540;SDS011;65385;55.772;37.658;2023-03-14T00:59:58;3.95;;;2.65;;
76540;SDS011;65385;55.772;37.658;2023-03-14T01:00:58;5.50;;;2.75;;
76540;SDS011;65385;55.772;37.658;2023-03-14T01:01:59;3.58;;;2.75;;
76540;SDS011;65385;55.772;37.658;2023-03-14T01:03:00;5.18;;;2.75;;
76540;SDS011;65385;55.772;37.658;2023-03-14T01:04:01;3.53;;;3.22;;
76540;SDS011;65385;55.772;37.658;2023-03-14T01:05:02;3.03;;;2.72;;
76540;SDS011;65385;55.772;37.658;2023-03-14T01:06:09;4.65;;;2.47;;
76540;SDS011;65385;55.772;37.658;2023-03-14T01:07:11;4.05;;;2.55;;
76540;SDS011;65385;55.772;37.658;2023-03-14T01:08:13;2.45;;;2.28;;
76540;SDS011;65385;55.772;37.658;2023-03-14T01:09:13;3.55;;;2.40;;
76540;SDS011;65385;55.772;37.658;2023-03-14T01:10:15;3.17;;;2.60;;
76540;SDS011;65385;55.772;37.658;2023-03-14T01:11:17;4.47;;;2.33;;
76540;SDS011;65385;55.772;37.658;2023-03-14T01:12:21;2.97;;;2.35;;
76540;SDS011;65385;55.772;37.658;2023-03-14T01:13:21;6.32;;;2.97;;
76540;SDS011;65385;55.772;37.658;2023-03-14T01:14:22;3.22;;;2.80;;
76540;SDS011;65385;55.772;37.658;2023-03-14T01:15:22;4.45;;;2.97;;
76540;SDS011;65385;55.772;37.658;2023-03-14T01:16:23;4.65;;;3.22;;
76540;SDS011;65385;55.772;37.658;2023-03-14T01:17:25;3.95;;;2.65;;
76540;SDS011;65385;55.772;37.658;2023-03-14T01:18:26;4.22;;;2.67;;
76540;SDS011;65385;55.772;37.658;2023-03-14T01:19:27;2.97;;;2.38;;
76540;SDS011;65385;55.772;37.658;2023-03-14T01:20:28;4.68;;;2.45;;
76540;SDS011;65385;55.772;37.658;2023-03-14T01:21:33;5.97;;;3.03;;
76540;SDS011;65385;55.772;37.658;2023-03-14T01:22:35;3.42;;;2.63;;
76540;SDS011;65385;55.772;37.658;2023-03-14T01:23:36;2.97;;;2.35;;
76540;SDS011;65385;55.772;37.658;2023-03-14T01:24:37;4.47;;;2.65;;
76540;SDS011;65385;55.772;37.658;2023-03-14T01:25:40;3.03;;;2.72;;
76540;SDS011;65385;55.772;37.658;2023-03-14T01:26:42;2.78;;;2.22;;
76540;SDS011;65385;55.772;37.658;2023-03-14T01:27:43;7.45;;;2.80;;
76540;SDS011;65385;55.772;37.658;2023-03-14T01:28:45;5.75;;;2.63;;
76540;SDS011;65385;55.772;37.658;2023-03-14T01:29:46;3.05;;;2.45;;
76540;SDS011;65385;55.772;37.658;2023-03-14T01:30:47;5.78;;;3.03;;
76540;SDS011;65385;55.772;37.658;2023-03-14T01:31:48;3.83;;;2.70;;
76540;SDS011;65385;55.772;37.658;2023-03-14T01:32:48;6.25;;;2.67;;
76540;SDS011;65385;55.772;37.658;2023-03-14T01:33:49;5.38;;;2.38;;
76540;SDS011;65385;55.772;37.658;2023-03-14T01:34:50;4.22;;;3.33;;
76540;SDS011;65385;55.772;37.658;2023-03-14T01:35:50;3.70;;;3.30;;
76540;SDS011;65385;55.772;37.658;2023-03-14T01:36:51;4.18;;;2.47;;
76540;SDS011;65385;55.772;37.658;2023-03-14T01:37:52;3.30;;;2.60;;
76540;SDS011;65385;55.772;37.658;2023-03-14T01:38:55;2.58;;;2.28;;
76540;SDS011;65385;55.772;37.658;2023-03-14T01:39:57;5.95;;;3.20;;
76540;SDS011;65385;55.772;37.658;2023-03-14T01:40:57;3.47;;;2.90;;
76540;SDS011;65385;55.772;37.658;2023-03-14T01:41:59;4.65;;;2.78;;
76540;SDS011;65385;55.772;37.658;2023-03-14T01:43:06;4.60;;;3.28;;
76540;SDS011;65385;55.772;37.658;2023-03-14T01:44:13;3.47;;;3.17;;
76540;SDS011;65385;55.772;37.658;2023-03-14T01:46:52;4.07;;;3.05;;
76540;SDS011;65385;55.772;37.658;2023-03-14T01:47:52;2.92;;;2.63;;
76540;SDS011;65385;55.772;37.658;2023-03-14T01:50:42;3.97;;;3.50;;
76540;SDS011;65385;55.772;37.658;2023-03-14T01:52:56;4.25;;;2.70;;
76540;SDS011;65385;55.772;37.658;2023-03-14T01:53:59;2.55;;;2.35;;
76540;SDS011;65385;55.772;37.658;2023-03-14T01:55:12;5.38;;;2.85;;
76540;SDS011;65385;55.772;37.658;2023-03-14T01:56:15;5.95;;;2.85;;
76540;SDS011;65385;55.772;37.658;2023-03-14T01:57:28;4.22;;;3.13;;
76540;SDS011;65385;55.772;37.658;2023-03-14T01:58:32;6.43;;;3.55;;
76540;SDS011;65385;55.772;37.658;2023-03-14T01:59:34;5.45;;;2.92;;
76540;SDS011;65385;55.772;37.658;2023-03-14T02:00:38;5.72;;;3.42;;
76540;SDS011;65385;55.772;37.658;2023-03-14T02:01:40;3.95;;;3.65;;
76540;SDS011;65385;55.772;37.658;2023-03-14T02:02:44;4.10;;;2.85;;
76540;SDS011;65385;55.772;37.658;2023-03-14T02:03:52;5.68;;;2.97;;
76540;SDS011;65385;55.772;37.658;2023-03-14T02:04:55;5.35;;;2.90;;
76540;SDS011;65385;55.772;37.658;2023-03-14T02:06:03;5.57;;;3.65;;
76540;SDS011;65385;55.772;37.658;2023-03-14T02:07:12;6.50;;;3.03;;
76540;SDS011;65385;55.772;37.658;2023-03-14T02:08:19;3.70;;;2.88;;
76540;SDS011;65385;55.772;37.658;2023-03-14T02:09:28;3.58;;;3.22;;
76540;SDS011;65385;55.772;37.658;2023-03-14T02:10:31;2.42;;;2.15;;
76540;SDS011;65385;55.772;37.658;2023-03-14T02:11:35;3.60;;;2.72;;
76540;SDS011;65385;55.772;37.658;2023-03-14T02:12:40;8.75;;;3.33;;
76540;SDS011;65385;55.772;37.658;2023-03-14T02:13:54;3.95;;;2.72;;
76540;SDS011;65385;55.772;37.658;2023-03-14T02:14:57;5.30;;;2.95;;
76540;SDS011;65385;55.772;37.658;2023-03-14T02:16:04;6.85;;;3.67;;
76540;SDS011;65385;55.772;37.658;2023-03-14T02:17:14;7.85;;;4.63;;
76540;SDS011;65385;55.772;37.658;2023-03-14T02:18:36;5.00;;;3.30;;
76540;SDS011;65385;55.772;37.658;2023-03-14T02:22:16;5.30;;;3.00;;
76540;SDS011;65385;55.772;37.658;2023-03-14T02:23:36;3.97;;;3.17;;
76540;SDS011;65385;55.772;37.658;2023-03-14T02:24:51;3.97;;;3.20;;
76540;SDS011;65385;55.772;37.658;2023-03-14T02:25:58;4.88;;;3.78;;
76540;SDS011;65385;55.772;37.658;2023-03-14T02:27:09;5.85;;;2.95;;
76540;SDS011;65385;55.772;37.658;2023-03-14T02:28:15;5.35;;;3.85;;
76540;SDS011;65385;55.772;37.658;2023-03-14T02:29:17;8.18;;;4.18;;
76540;SDS011;65385;55.772;37.658;2023-03-14T02:30:19;6.47;;;3.28;;
76540;SDS011;65385;55.772;37.658;2023-03-14T02:31:23;6.22;;;3.67;;
76540;SDS011;65385;55.772;37.658;2023-03-14T02:32:24;6.47;;;3.25;;
76540;SDS011;65385;55.772;37.658;2023-03-14T02:33:26;4.10;;;2.72;;
76540;SDS011;65385;55.772;37.658;2023-03-14T02:34:27;8.43;;;4.05;;
76540;SDS011;65385;55.772;37.658;2023-03-14T02:35:29;4.85;;;3.85;;
76540;SDS011;65385;55.772;37.658;2023-03-14T02:36:35;6.47;;;3.60;;
76540;SDS011;65385;55.772;37.658;2023-03-14T02:37:37;7.38;;;3.97;;
76540;SDS011;65385;55.772;37.658;2023-03-14T02:38:45;5.55;;;3.78;;
76540;SDS011;65385;55.772;37.658;2023-03-14T02:39:51;5.63;;;3.85;;
76540;SDS011;65385;55.772;37.658;2023-03-14T02:40:52;7.38;;;3.90;;
76540;SDS011;65385;55.772;37.658;2023-03-14T02:41:53;12.77;;;3.63;;
76540;SDS011;65385;55.772;37.658;2023-03-14T02:42:53;5.75;;;3.10;;
76540;SDS011;65385;55.772;37.658;2023-03-14T02:43:54;3.58;;;3.17;;
76540;SDS011;65385;55.772;37.658;2023-03-14T02:45:41;5.10;;;3.53;;
76540;SDS011;65385;55.772;37.658;2023-03-14T02:46:18;5.05;;;3.60;;
76540;SDS011;65385;55.772;37.658;2023-03-14T02:47:26;6.18;;;3.30;;
76540;SDS011;65385;55.772;37.658;2023-03-14T02:48:30;9.30;;;3.90;;
76540;SDS011;65385;55.772;37.658;2023-03-14T02:49:34;6.40;;;3.45;;
76540;SDS011;65385;55.772;37.658;2023-03-14T02:50:35;7.57;;;4.45;;
76540;SDS011;65385;55.772;37.658;2023-03-14T02:51:36;6.13;;;3.65;;
76540;SDS011;65385;55.772;37.658;2023-03-14T02:52:39;7.55;;;4.35;;
76540;SDS011;65385;55.772;37.658;2023-03-14T02:53:41;5.70;;;3.63;;
76540;SDS011;65385;55.772;37.658;2023-03-14T02:54:45;6.18;;;4.32;;
76540;SDS011;65385;55.772;37.658;2023-03-14T02:55:47;8.05;;;3.97;;
76540;SDS011;65385;55.772;37.658;2023-03-14T02:56:50;9.93;;;4.13;;
76540;SDS011;65385;55.772;37.658;2023-03-14T02:57:50;7.82;;;4.43;;
76540;SDS011;65385;55.772;37.658;2023-03-14T02:58:51;6.90;;;4.18;;
76540;SDS011;65385;55.772;37.658;2023-03-14T03:00:17;7.50;;;3.83;;
76540;SDS011;65385;55.772;37.658;2023-03-14T03:01:18;6.03;;;4.05;;
76540;SDS011;65385;55.772;37.658;2023-03-14T03:02:18;6.85;;;3.67;;
76540;SDS011;65385;55.772;37.658;2023-03-14T03:03:19;6.13;;;3.97;;
76540;SDS011;65385;55.772;37.658;2023-03-14T03:04:22;5.75;;;3.95;;
76540;SDS011;65385;55.772;37.658;2023-03-14T03:05:22;6.00;;;4.40;;
76540;SDS011;65385;55.772;37.658;2023-03-14T03:06:23;6.75;;;3.50;;
76540;SDS011;65385;55.772;37.658;2023-03-14T03:07:24;9.13;;;4.25;;
76540;SDS011;65385;55.772;37.658;2023-03-14T03:08:25;8.05;;;4.25;;
76540;SDS011;65385;55.772;37.658;2023-03-14T03:09:28;7.78;;;3.85;;
76540;SDS011;65385;55.772;37.658;2023-03-14T03:10:28;6.70;;;3.67;;
76540;SDS011;65385;55.772;37.658;2023-03-14T03:11:29;8.18;;;4.22;;
76540;SDS011;65385;55.772;37.658;2023-03-14T03:12:31;7.10;;;3.67;;
76540;SDS011;65385;55.772;37.658;2023-03-14T03:13:32;6.53;;;3.42;;
76540;SDS011;65385;55.772;37.658;2023-03-14T03:14:35;7.63;;;5.18;;
76540;SDS011;65385;55.772;37.658;2023-03-14T03:15:38;8.13;;;4.50;;
76540;SDS011;65385;55.772;37.658;2023-03-14T03:16:38;6.20;;;3.78;;
76540;SDS011;65385;55.772;37.658;2023-03-14T03:17:39;7.43;;;4.10;;
76540;SDS011;65385;55.772;37.658;2023-03-14T03:18:40;5.05;;;3.50;;
76540;SDS011;65385;55.772;37.658;2023-03-14T03:19:40;4.65;;;4.25;;
76540;SDS011;65385;55.772;37.658;2023-03-14T03:20:41;10.07;;;4.35;;
76540;SDS011;65385;55.772;37.658;2023-03-14T03:21:41;7.57;;;4.90;;
76540;SDS011;65385;55.772;37.658;2023-03-14T03:22:42;8.70;;;4.65;;
76540;SDS011;65385;55.772;37.658;2023-03-14T03:23:43;8.50;;;4.63;;
76540;SDS011;65385;55.772;37.658;2023-03-14T03:24:44;6.80;;;3.78;;
76540;SDS011;65385;55.772;37.658;2023-03-14T03:25:48;8.45;;;4.40;;
76540;SDS011;65385;55.772;37.658;2023-03-14T03:26:50;5.43;;;3.72;;
76540;SDS011;65385;55.772;37.658;2023-03-14T03:27:50;8.07;;;3.88;;
76540;SDS011;65385;55.772;37.658;2023-03-14T03:28:52;5.68;;;3.92;;
76540;SDS011;65385;55.772;37.658;2023-03-14T03:29:53;9.02;;;4.90;;
76540;SDS011;65385;55.772;37.658;2023-03-14T03:30:53;8.88;;;4.93;;
76540;SDS011;65385;55.772;37.658;2023-03-14T03:31:54;11.35;;;5.05;;
76540;SDS011;65385;55.772;37.658;2023-03-14T03:32:55;7.82;;;4.47;;
76540;SDS011;65385;55.772;37.658;2023-03-14T03:33:56;7.15;;;4.40;;
76540;SDS011;65385;55.772;37.658;2023-03-14T03:34:58;7.50;;;4.68;;
76540;SDS011;65385;55.772;37.658;2023-03-14T03:35:59;8.27;;;4.97;;
76540;SDS011;65385;55.772;37.658;2023-03-14T03:37:04;5.82;;;4.10;;
76540;SDS011;65385;55.772;37.658;2023-03-14T03:39:11;7.50;;;3.83;;
76540;SDS011;65385;55.772;37.658;2023-03-14T03:40:12;11.43;;;4.97;;
76540;SDS011;65385;55.772;37.658;2023-03-14T03:41:13;7.97;;;4.72;;
76540;SDS011;65385;55.772;37.658;2023-03-14T03:42:13;9.85;;;4.82;;
76540;SDS011;65385;55.772;37.658;2023-03-14T03:43:14;7.15;;;4.03;;
76540;SDS011;65385;55.772;37.658;2023-03-14T03:44:17;5.05;;;4.47;;
76540;SDS011;65385;55.772;37.658;2023-03-14T03:45:18;7.57;;;4.90;;
76540;SDS011;65385;55.772;37.658;2023-03-14T03:46:25;7.13;;;4.25;;
76540;SDS011;65385;55.772;37.658;2023-03-14T03:47:26;7.05;;;4.30;;
76540;SDS011;65385;55.772;37.658;2023-03-14T03:48:28;7.78;;;4.95;;
76540;SDS011;65385;55.772;37.658;2023-03-14T03:49:32;9.48;;;5.03;;
76540;SDS011;65385;55.772;37.658;2023-03-14T03:50:33;7.20;;;4.18;;
76540;SDS011;65385;55.772;37.658;2023-03-14T03:51:34;13.35;;;4.35;;
76540;SDS011;65385;55.772;37.658;2023-03-14T03:52:34;8.07;;;4.32;;
76540;SDS011;65385;55.772;37.658;2023-03-14T03:53:35;6.15;;;3.85;;
76540;SDS011;65385;55.772;37.658;2023-03-14T03:54:40;7.88;;;5.28;;
76540;SDS011;65385;55.772;37.658;2023-03-14T03:55:41;7.90;;;4.47;;
76540;SDS011;65385;55.772;37.658;2023-03-14T03:56:43;7.68;;;4.55;;
76540;SDS011;65385;55.772;37.658;2023-03-14T03:57:43;8.40;;;5.10;;
76540;SDS011;65385;55.772;37.658;2023-03-14T03:58:45;9.90;;;5.65;;
76540;SDS011;65385;55.772;37.658;2023-03-14T03:59:46;9.52;;;5.22;;
76540;SDS011;65385;55.772;37.658;2023-03-14T04:00:48;9.20;;;4.88;;
76540;SDS011;65385;55.772;37.658;2023-03-14T04:01:48;12.45;;;5.68;;
76540;SDS011;65385;55.772;37.658;2023-03-14T04:02:49;8.55;;;5.18;;
76540;SDS011;65385;55.772;37.658;2023-03-14T04:03:51;8.30;;;4.57;;
76540;SDS011;65385;55.772;37.658;2023-03-14T04:04:52;7.70;;;3.80;;
76540;SDS011;65385;55.772;37.658;2023-03-14T04:06:03;10.45;;;4.45;;
76540;SDS011;65385;55.772;37.658;2023-03-14T04:07:07;5.50;;;3.78;;
76540;SDS011;65385;55.772;37.658;2023-03-14T04:08:09;5.03;;;3.83;;
76540;SDS011;65385;55.772;37.658;2023-03-14T04:09:10;9.20;;;5.32;;
76540;SDS011;65385;55.772;37.658;2023-03-14T04:10:16;7.75;;;4.18;;
76540;SDS011;65385;55.772;37.658;2023-03-14T04:11:30;8.73;;;5.05;;
76540;SDS011;65385;55.772;37.658;2023-03-14T04:12:44;5.72;;;3.28;;
76540;SDS011;65385;55.772;37.658;2023-03-14T04:13:50;7.00;;;4.43;;
76540;SDS011;65385;55.772;37.658;2023-03-14T04:14:50;10.02;;;4.88;;
76540;SDS011;65385;55.772;37.658;2023-03-14T04:15:55;11.43;;;5.63;;
76540;SDS011;65385;55.772;37.658;2023-03-14T04:16:59;7.05;;;3.97;;
76540;SDS011;65385;55.772;37.658;2023-03-14T04:18:00;7.70;;;5.13;;
76540;SDS011;65385;55.772;37.658;2023-03-14T04:19:01;8.90;;;4.90;;
76540;SDS011;65385;55.772;37.658;2023-03-14T04:20:02;9.07;;;4.95;;
76540;SDS011;65385;55.772;37.658;2023-03-14T04:21:09;11.15;;;5.40;;
76540;SDS011;65385;55.772;37.658;2023-03-14T04:22:18;8.70;;;5.15;;
76540;SDS011;65385;55.772;37.658;2023-03-14T04:23:22;10.40;;;6.03;;
76540;SDS011;65385;55.772;37.658;2023-03-14T04:24:24;8.23;;;4.43;;
76540;SDS011;65385;55.772;37.658;2023-03-14T04:25:25;9.60;;;5.20;;
76540;SDS011;65385;55.772;37.658;2023-03-14T04:26:29;9.85;;;4.50;;
76540;SDS011;65385;55.772;37.658;2023-03-14T04:27:30;10.05;;;5.28;;
76540;SDS011;65385;55.772;37.658;2023-03-14T04:28:32;10.40;;;4.95;;
76540;SDS011;65385;55.772;37.658;2023-03-14T04:29:33;7.03;;;4.53;;
76540;SDS011;65385;55.772;37.658;2023-03-14T04:30:34;10.15;;;5.10;;
76540;SDS011;65385;55.772;37.658;2023-03-14T04:31:40;10.73;;;5.97;;
76540;SDS011;65385;55.772;37.658;2023-03-14T04:32:41;8.18;;;5.13;;
76540;SDS011;65385;55.772;37.658;2023-03-14T04:33:42;7.38;;;5.47;;
76540;SDS011;65385;55.772;37.658;2023-03-14T04:34:43;10.77;;;5.03;;
76540;SDS011;65385;55.772;37.658;2023-03-14T04:35:46;8.52;;;4.88;;
76540;SDS011;65385;55.772;37.658;2023-03-14T04:36:49;7.03;;;4.57;;
76540;SDS011;65385;55.772;37.658;2023-03-14T04:37:54;12.32;;;5.75;;
76540;SDS011;65385;55.772;37.658;2023-03-14T04:38:56;11.85;;;6.82;;
76540;SDS011;65385;55.772;37.658;2023-03-14T04:39:58;8.30;;;4.82;;
76540;SDS011;65385;55.772;37.658;2023-03-14T04:41:01;7.13;;;4.95;;
76540;SDS011;65385;55.772;37.658;2023-03-14T04:42:05;9.95;;;5.45;;
76540;SDS011;65385;55.772;37.658;2023-03-14T04:43:07;9.75;;;5.68;;
76540;SDS011;65385;55.772;37.658;2023-03-14T04:44:10;11.30;;;5.43;;
76540;SDS011;65385;55.772;37.658;2023-03-14T04:45:11;7.13;;;5.10;;
76540;SDS011;65385;55.772;37.658;2023-03-14T04:46:13;9.52;;;5.18;;
76540;SDS011;65385;55.772;37.658;2023-03-14T04:47:13;12.55;;;5.57;;
76540;SDS011;65385;55.772;37.658;2023-03-14T04:48:15;11.90;;;6.50;;
76540;SDS011;65385;55.772;37.658;2023-03-14T04:49:16;12.82;;;5.97;;
76540;SDS011;65385;55.772;37.658;2023-03-14T04:50:17;9.23;;;5.50;;
76540;SDS011;65385;55.772;37.658;2023-03-14T04:51:17;9.68;;;5.32;;
76540;SDS011;65385;55.772;37.658;2023-03-14T04:52:19;10.18;;;5.97;;
76540;SDS011;65385;55.772;37.658;2023-03-14T04:53:20;8.70;;;4.97;;
76540;SDS011;65385;55.772;37.658;2023-03-14T04:54:22;9.80;;;4.10;;
76540;SDS011;65385;55.772;37.658;2023-03-14T04:55:27;11.40;;;4.28;;
76540;SDS011;65385;55.772;37.658;2023-03-14T04:56:29;10.82;;;5.07;;
76540;SDS011;65385;55.772;37.658;2023-03-14T04:57:31;13.45;;;6.05;;
76540;SDS011;65385;55.772;37.658;2023-03-14T04:58:32;12.13;;;5.72;;
76540;SDS011;65385;55.772;37.658;2023-03-14T04:59:34;10.07;;;5.72;;
76540;SDS011;65385;55.772;37.658;2023-03-14T05:00:46;9.65;;;5.90;;
76540;SDS011;65385;55.772;37.658;2023-03-14T05:02:19;13.40;;;6.10;;
76540;SDS011;65385;55.772;37.658;2023-03-14T05:03:34;7.80;;;4.57;;
76540;SDS011;65385;55.772;37.658;2023-03-14T05:04:51;5.80;;;3.55;;
76540;SDS011;65385;55.772;37.658;2023-03-14T05:06:12;11.25;;;5.00;;
76540;SDS011;65385;55.772;37.658;2023-03-14T05:07:31;11.43;;;5.07;;
76540;SDS011;65385;55.772;37.658;2023-03-14T05:08:56;15.00;;;5.70;;
76540;SDS011;65385;55.772;37.658;2023-03-14T05:10:12;10.18;;;3.97;;
76540;SDS011;65385;55.772;37.658;2023-03-14T05:11:42;10.30;;;4.38;;
76540;SDS011;65385;55.772;37.658;2023-03-14T05:12:55;5.85;;;4.47;;
76540;SDS011;65385;55.772;37.658;2023-03-14T05:14:17;6.65;;;3.50;;
76540;SDS011;65385;55.772;37.658;2023-03-14T05:15:53;4.80;;;3.17;;
76540;SDS011;65385;55.772;37.658;2023-03-14T05:17:14;6.15;;;3.40;;
76540;SDS011;65385;55.772;37.658;2023-03-14T05:18:33;8.20;;;5.15;;
76540;SDS011;65385;55.772;37.658;2023-03-14T05:19:43;7.18;;;3.95;;
76540;SDS011;65385;55.772;37.658;2023-03-14T05:20:44;12.10;;;4.88;;
76540;SDS011;65385;55.772;37.658;2023-03-14T05:22:18;6.88;;;3.47;;
76540;SDS011;65385;55.772;37.658;2023-03-14T05:23:43;13.02;;;5.35;;
76540;SDS011;65385;55.772;37.658;2023-03-14T05:25:05;6.88;;;4.10;;
76540;SDS011;65385;55.772;37.658;2023-03-14T05:26:22;12.43;;;5.70;;
76540;SDS011;65385;55.772;37.658;2023-03-14T05:27:42;12.95;;;5.18;;
76540;SDS011;65385;55.772;37.658;2023-03-14T05:29:03;9.13;;;3.95;;
76540;SDS011;65385;55.772;37.658;2023-03-14T05:30:23;9.55;;;4.68;;
76540;SDS011;65385;55.772;37.658;2023-03-14T05:31:53;13.35;;;5.63;;
76540;SDS011;65385;55.772;37.658;2023-03-14T05:33:10;12.77;;;4.68;;
76540;SDS011;65385;55.772;37.658;2023-03-14T05:34:29;6.07;;;3.60;;
76540;SDS011;65385;55.772;37.658;2023-03-14T05:35:44;10.70;;;4.40;;
76540;SDS011;65385;55.772;37.658;2023-03-14T05:37:03;9.75;;;3.75;;
76540;SDS011;65385;55.772;37.658;2023-03-14T05:38:23;8.32;;;4.90;;
76540;SDS011;65385;55.772;37.658;2023-03-14T05:39:44;12.80;;;5.13;;
76540;SDS011;65385;55.772;37.658;2023-03-14T05:41:05;11.20;;;5.18;;
76540;SDS011;65385;55.772;37.658;2023-03-14T05:42:16;10.00;;;4.00;;
76540;SDS011;65385;55.772;37.658;2023-03-14T05:43:39;8.73;;;3.92;;
76540;SDS011;65385;55.772;37.658;2023-03-14T05:44:58;10.88;;;4.55;;
76540;SDS011;65385;55.772;37.658;2023-03-14T05:46:17;8.52;;;4.80;;
76540;SDS011;65385;55.772;37.658;2023-03-14T05:47:38;7.10;;;4.32;;
76540;SDS011;65385;55.772;37.658;2023-03-14T05:48:57;4.72;;;3.60;;
76540;SDS011;65385;55.772;37.658;2023-03-14T05:50:20;8.43;;;4.43;;
76540;SDS011;65385;55.772;37.658;2023-03-14T05:51:42;5.38;;;3.78;;
76540;SDS011;65385;55.772;37.658;2023-03-14T05:53:11;10.40;;;3.90;;
76540;SDS011;65385;55.772;37.658;2023-03-14T05:54:47;7.85;;;4.13;;
76540;SDS011;65385;55.772;37.658;2023-03-14T05:56:16;6.68;;;3.75;;
76540;SDS011;65385;55.772;37.658;2023-03-14T05:57:32;8.15;;;4.13;;
76540;SDS011;65385;55.772;37.658;2023-03-14T05:58:56;7.45;;;3.55;;
76540;SDS011;65385;55.772;37.658;2023-03-14T06:00:04;11.80;;;3.60;;
76540;SDS011;65385;55.772;37.658;2023-03-14T06:01:21;10.80;;;4.60;;
76540;SDS011;65385;55.772;37.658;2023-03-14T06:02:43;5.13;;;3.22;;
76540;SDS011;65385;55.772;37.658;2023-03-14T06:03:53;7.10;;;3.40;;
76540;SDS011;65385;55.772;37.658;2023-03-14T06:04:54;9.27;;;4.95;;
76540;SDS011;65385;55.772;37.658;2023-03-14T06:05:54;4.07;;;3.30;;
76540;SDS011;65385;55.772;37.658;2023-03-14T06:06:57;7.47;;;3.58;;
76540;SDS011;65385;55.772;37.658;2023-03-14T06:07:57;8.45;;;3.78;;
76540;SDS011;65385;55.772;37.658;2023-03-14T06:08:59;11.82;;;3.50;;
76540;SDS011;65385;55.772;37.658;2023-03-14T06:10:00;3.90;;;3.42;;
76540;SDS011;65385;55.772;37.658;2023-03-14T06:11:02;5.95;;;3.63;;
76540;SDS011;65385;55.772;37.658;2023-03-14T06:12:04;7.30;;;3.08;;
76540;SDS011;65385;55.772;37.658;2023-03-14T06:13:11;4.63;;;3.03;;
76540;SDS011;65385;55.772;37.658;2023-03-14T06:14:11;4.63;;;3.20;;
76540;SDS011;65385;55.772;37.658;2023-03-14T06:15:15;3.95;;;2.97;;
76540;SDS011;65385;55.772;37.658;2023-03-14T06:16:19;6.53;;;4.05;;
76540;SDS011;65385;55.772;37.658;2023-03-14T06:17:19;4.75;;;3.22;;
76540;SDS011;65385;55.772;37.658;2023-03-14T06:18:26;4.88;;;3.45;;
76540;SDS011;65385;55.772;37.658;2023-03-14T06:19:27;9.48;;;4.40;;
76540;SDS011;65385;55.772;37.658;2023-03-14T06:20:28;6.00;;;3.20;;
76540;SDS011;65385;55.772;37.658;2023-03-14T06:21:28;6.05;;;3.38;;
76540;SDS011;65385;55.772;37.658;2023-03-14T06:22:30;7.22;;;3.63;;
76540;SDS011;65385;55.772;37.658;2023-03-14T06:23:30;7.80;;;3.83;;
76540;SDS011;65385;55.772;37.658;2023-03-14T06:24:33;10.90;;;3.65;;
76540;SDS011;65385;55.772;37.658;2023-03-14T06:25:34;11.60;;;4.25;;
76540;SDS011;65385;55.772;37.658;2023-03-14T06:26:36;5.85;;;3.60;;
76540;SDS011;65385;55.772;37.658;2023-03-14T06:27:36;9.27;;;3.85;;
76540;SDS011;65385;55.772;37.658;2023-03-14T06:28:37;6.85;;;3.85;;
76540;SDS011;65385;55.772;37.658;2023-03-14T06:29:38;5.55;;;3.15;;
76540;SDS011;65385;55.772;37.658;2023-03-14T06:30:39;5.38;;;3.10;;
76540;SDS011;65385;55.772;37.658;2023-03-14T06:31:42;5.57;;;3.13;;
76540;SDS011;65385;55.772;37.658;2023-03-14T06:32:43;5.00;;;2.83;;
76540;SDS011;65385;55.772;37.658;2023-03-14T06:33:47;4.88;;;2.90;;